createdAt,value
2018-11-14T00:01:06.818Z,75.31
2018-11-14T00:03:34.292Z,76.06
2018-11-14T00:06:02.233Z,75.30
2018-11-14T00:08:29.705Z,75.57
2018-11-14T00:10:57.197Z,75.67
2018-11-14T00:13:24.696Z,75.93
2018-11-14T00:15:53.633Z,76.25
2018-11-14T00:18:22.445Z,75.74
2018-11-14T00:20:49.935Z,75.87
2018-11-14T00:23:17.446Z,75.30
2018-11-14T00:25:45.359Z,76.24
2018-11-14T00:28:12.850Z,75.90
2018-11-14T00:30:40.336Z,76.04
2018-11-14T00:33:07.862Z,75.74
2018-11-14T00:35:35.855Z,76.10
2018-11-14T00:38:03.331Z,76.41
2018-11-14T00:40:30.838Z,76.69
2018-11-14T00:42:58.794Z,76.62
2018-11-14T00:45:26.428Z,76.86
2018-11-14T00:47:53.924Z,76.33
2018-11-14T00:50:21.941Z,76.69
2018-11-14T00:52:49.841Z,76.88
2018-11-14T00:55:20.427Z,76.38
2018-11-14T00:57:49.105Z,76.80
2018-11-14T01:00:19.944Z,76.61
2018-11-14T01:02:47.549Z,77.25
2018-11-14T01:05:15.695Z,76.45
2018-11-14T01:07:43.456Z,76.92
2018-11-14T01:10:12.952Z,77.17
2018-11-14T01:12:40.735Z,76.56
2018-11-14T01:15:08.225Z,77.04
2018-11-14T01:17:35.730Z,77.04
2018-11-14T01:20:03.524Z,76.91
2018-11-14T01:22:31.027Z,76.49
2018-11-14T01:24:58.513Z,76.35
2018-11-14T01:27:26.010Z,76.68
2018-11-14T01:29:53.519Z,76.27
2018-11-14T01:32:21.089Z,76.73
2018-11-14T01:34:48.597Z,76.68
2018-11-14T01:37:16.119Z,76.47
2018-11-14T01:39:46.321Z,77.03
2018-11-14T01:42:13.802Z,76.84
2018-11-14T01:44:41.319Z,76.81
2018-11-14T01:47:09.255Z,76.68
2018-11-14T01:49:36.740Z,77.18
2018-11-14T01:52:04.221Z,77.22
2018-11-14T01:54:31.697Z,76.87
2018-11-14T01:56:59.605Z,77.16
2018-11-14T01:59:27.094Z,77.18
2018-11-14T02:01:54.592Z,77.08
2018-11-14T02:04:22.384Z,77.07
2018-11-14T02:06:49.872Z,77.32
2018-11-14T02:09:17.353Z,78.12
2018-11-14T02:11:44.840Z,77.19
2018-11-14T02:14:12.703Z,77.49
2018-11-14T02:16:40.173Z,77.58
2018-11-14T02:19:07.664Z,77.03
2018-11-14T02:21:35.161Z,77.71
2018-11-14T02:24:03.065Z,77.65
2018-11-14T02:26:30.569Z,78.08
2018-11-14T02:28:58.069Z,77.69
2018-11-14T02:31:25.859Z,77.64
2018-11-14T02:33:53.345Z,77.83
2018-11-14T02:36:20.836Z,77.67
2018-11-14T02:38:48.329Z,77.73
2018-11-14T02:41:16.265Z,77.81
2018-11-14T02:43:43.777Z,77.95
2018-11-14T02:46:11.277Z,78.01
2018-11-14T02:48:39.049Z,77.77
2018-11-14T02:51:06.552Z,77.68
2018-11-14T02:53:34.049Z,77.93
2018-11-14T02:56:01.525Z,77.74
2018-11-14T02:58:29.308Z,78.00
2018-11-14T03:00:57.441Z,77.65
2018-11-14T03:03:24.961Z,78.09
2018-11-14T03:05:52.437Z,78.49
2018-11-14T03:08:21.273Z,77.88
2018-11-14T03:10:48.775Z,77.95
2018-11-14T03:13:16.273Z,78.03
2018-11-14T03:15:44.821Z,78.23
2018-11-14T03:18:12.651Z,77.86
2018-11-14T03:20:40.137Z,78.58
2018-11-14T03:23:07.665Z,77.87
2018-11-14T03:25:35.174Z,78.24
2018-11-14T03:28:03.115Z,78.16
2018-11-14T03:30:30.665Z,78.33
2018-11-14T03:32:58.163Z,78.13
2018-11-14T03:35:27.152Z,78.41
2018-11-14T03:37:54.655Z,78.21
2018-11-14T03:40:22.176Z,78.48
2018-11-14T03:42:49.994Z,78.58
2018-11-14T03:45:17.497Z,78.35
2018-11-14T03:47:45.015Z,78.26
2018-11-14T03:52:43.760Z,78.32
2018-11-14T03:55:11.281Z,77.99
2018-11-14T03:57:38.889Z,77.76
2018-11-14T04:00:06.451Z,78.03
2018-11-14T04:02:34.343Z,78.29
2018-11-14T04:05:01.840Z,78.04
2018-11-14T04:07:29.361Z,78.14
2018-11-14T04:09:57.328Z,78.18
2018-11-14T04:12:24.882Z,77.84
2018-11-14T04:14:52.371Z,78.41
2018-11-14T04:17:19.841Z,78.05
2018-11-14T04:19:47.760Z,78.36
2018-11-14T04:22:15.253Z,77.93
2018-11-14T04:24:42.739Z,78.45
2018-11-14T04:27:10.222Z,78.83
2018-11-14T04:29:38.017Z,78.62
2018-11-14T04:32:05.505Z,78.43
2018-11-14T04:34:33.001Z,78.73
2018-11-14T04:37:01.452Z,78.88
2018-11-14T04:39:29.292Z,78.88
2018-11-14T04:41:56.795Z,79.01
2018-11-14T04:44:24.320Z,79.05
2018-11-14T04:46:51.810Z,78.67
2018-11-14T04:49:19.728Z,79.04
2018-11-14T04:51:47.279Z,79.34
2018-11-14T04:54:14.810Z,79.02
2018-11-14T04:56:43.741Z,79.39
2018-11-14T04:59:11.376Z,79.16
2018-11-14T05:01:38.912Z,78.86
2018-11-14T05:04:06.764Z,78.67
2018-11-14T05:06:34.258Z,79.03
2018-11-14T05:09:01.782Z,79.21
2018-11-14T05:11:29.287Z,79.57
2018-11-14T05:13:57.216Z,79.60
2018-11-14T05:16:24.773Z,79.21
2018-11-14T05:18:52.277Z,79.63
2018-11-14T05:21:20.131Z,79.48
2018-11-14T05:23:47.630Z,79.08
2018-11-14T05:26:15.124Z,79.84
2018-11-14T05:28:42.915Z,79.82
2018-11-14T05:31:10.413Z,79.58
2018-11-14T05:33:37.893Z,79.75
2018-11-14T05:36:05.703Z,80.01
2018-11-14T05:38:33.585Z,80.67
2018-11-14T05:41:01.058Z,80.73
2018-11-14T05:43:28.933Z,80.60
2018-11-14T05:45:56.419Z,80.51
2018-11-14T05:48:23.913Z,80.66
2018-11-14T05:50:52.744Z,81.13
2018-11-14T05:53:20.240Z,80.62
2018-11-14T05:55:47.738Z,80.38
2018-11-14T05:58:15.674Z,80.79
2018-11-14T06:00:43.168Z,80.57
2018-11-14T06:03:10.653Z,80.98
2018-11-14T06:05:38.451Z,80.75
2018-11-14T06:08:05.977Z,80.58
2018-11-14T06:10:33.504Z,81.08
2018-11-14T06:13:01.472Z,80.59
2018-11-14T06:15:31.306Z,80.65
2018-11-14T06:17:58.789Z,80.61
2018-11-14T06:20:26.668Z,80.33
2018-11-14T06:22:54.628Z,80.10
2018-11-14T06:25:23.402Z,79.53
2018-11-14T06:27:52.432Z,79.61
2018-11-14T06:30:20.414Z,79.86
2018-11-14T06:32:48.035Z,79.52
2018-11-14T06:35:16.229Z,79.37
2018-11-14T06:37:43.812Z,78.82
2018-11-14T06:40:18.094Z,78.99
2018-11-14T06:42:45.898Z,78.71
2018-11-14T06:45:15.646Z,79.18
2018-11-14T06:47:44.490Z,79.05
2018-11-14T06:50:12.974Z,79.09
2018-11-14T06:52:41.039Z,79.24
2018-11-14T06:55:08.571Z,79.59
2018-11-14T06:57:36.481Z,80.02
2018-11-14T07:00:05.112Z,80.32
2018-11-14T07:02:38.335Z,80.62
2018-11-14T07:05:00.857Z,79.98
2018-11-14T07:07:28.509Z,80.58
2018-11-14T07:09:57.350Z,80.47
2018-11-14T07:12:25.205Z,80.53
2018-11-14T07:14:52.685Z,80.87
2018-11-14T07:17:20.223Z,80.36
2018-11-14T07:19:48.184Z,80.75
2018-11-14T07:22:15.729Z,80.27
2018-11-14T07:24:43.290Z,80.15
2018-11-14T07:27:11.159Z,80.40
2018-11-14T07:29:39.525Z,80.58
2018-11-14T07:32:07.941Z,80.53
2018-11-14T07:34:35.794Z,80.73
2018-11-14T07:37:03.278Z,80.43
2018-11-14T07:39:30.765Z,80.21
2018-11-14T07:41:58.583Z,79.89
2018-11-14T07:44:26.048Z,80.04
2018-11-14T07:46:54.541Z,79.86
2018-11-14T07:49:22.392Z,79.85
2018-11-14T07:51:53.572Z,79.70
2018-11-14T07:54:24.768Z,79.38
2018-11-14T07:56:55.594Z,79.72
2018-11-14T07:59:23.088Z,79.66
2018-11-14T08:01:50.590Z,79.35
2018-11-14T08:04:18.742Z,79.63
2018-11-14T08:06:46.232Z,79.44
2018-11-14T08:09:13.700Z,79.22
2018-11-14T08:11:41.593Z,78.99
2018-11-14T08:14:09.072Z,78.01
2018-11-14T08:16:37.148Z,77.81
2018-11-14T08:19:05.093Z,77.34
2018-11-14T08:21:32.537Z,76.64
2018-11-14T08:24:01.663Z,76.88
2018-11-14T08:26:29.626Z,75.50
2018-11-14T08:28:58.146Z,75.43
2018-11-14T08:31:25.642Z,75.42
2018-11-14T08:33:53.610Z,75.67
2018-11-14T08:36:21.121Z,75.46
2018-11-14T08:38:48.621Z,75.25
2018-11-14T08:41:16.616Z,75.00
2018-11-14T08:43:45.081Z,75.42
2018-11-14T08:46:12.565Z,75.58
2018-11-14T08:48:40.542Z,75.31
2018-11-14T08:51:08.247Z,75.33
2018-11-14T08:53:35.747Z,75.14
2018-11-14T08:56:05.442Z,75.03
2018-11-14T08:58:32.992Z,75.50
2018-11-14T09:01:00.512Z,75.82
2018-11-14T09:03:28.445Z,75.59
2018-11-14T09:05:56.783Z,74.79
2018-11-14T09:08:24.275Z,74.83
2018-11-14T09:10:52.306Z,74.22
2018-11-14T09:13:19.800Z,74.23
2018-11-14T09:15:47.916Z,74.07
2018-11-14T09:18:15.869Z,74.37
2018-11-14T09:20:44.133Z,74.10
2018-11-14T09:23:11.688Z,73.58
2018-11-14T09:25:39.620Z,73.19
2018-11-14T09:28:09.005Z,72.42
2018-11-14T09:30:36.502Z,72.23
2018-11-14T09:33:04.570Z,71.64
2018-11-14T09:35:32.022Z,71.37
2018-11-14T09:38:00.701Z,70.24
2018-11-14T09:40:29.453Z,69.98
2018-11-14T09:42:57.514Z,68.11
2018-11-14T09:45:26.197Z,66.77
2018-11-14T09:47:55.104Z,63.98
2018-11-14T09:50:23.744Z,61.40
2018-11-14T09:53:06.186Z,59.96
2018-11-14T09:55:34.097Z,59.14
2018-11-14T09:58:01.654Z,59.29
2018-11-14T10:00:34.006Z,58.66
2018-11-14T10:03:01.893Z,59.07
2018-11-14T10:05:29.392Z,58.07
2018-11-14T10:07:58.078Z,57.53
2018-11-14T10:10:26.387Z,57.15
2018-11-14T10:12:53.885Z,55.95
2018-11-14T10:15:23.379Z,54.45
2018-11-14T10:17:51.270Z,54.18
2018-11-14T10:20:20.984Z,52.92
2018-11-14T10:22:48.530Z,52.48
2018-11-14T10:25:18.767Z,52.16
2018-11-14T10:27:46.779Z,51.42
2018-11-14T10:30:15.599Z,52.12
2018-11-14T10:32:44.335Z,52.17
2018-11-14T10:35:12.208Z,51.78
2018-11-14T10:37:43.553Z,51.48
2018-11-14T10:40:14.512Z,52.23
2018-11-14T10:42:43.471Z,52.22
2018-11-14T10:45:11.677Z,53.27
2018-11-14T10:47:39.594Z,53.41
2018-11-14T10:50:08.836Z,53.36
2018-11-14T10:52:38.808Z,53.23
2018-11-14T10:55:07.417Z,53.51
2018-11-14T10:57:35.295Z,53.30
2018-11-14T11:00:03.535Z,52.00
2018-11-14T11:02:39.268Z,51.62
2018-11-14T11:05:13.045Z,48.98
2018-11-14T11:07:45.846Z,49.32
2018-11-14T11:10:18.472Z,48.64
2018-11-14T11:12:51.484Z,47.41
2018-11-14T11:17:27.466Z,46.99
2018-11-14T11:19:55.669Z,47.55
2018-11-14T11:22:24.337Z,48.20
2018-11-14T11:24:53.374Z,49.16
2018-11-14T11:27:20.883Z,49.58
2018-11-14T11:29:50.104Z,50.76
2018-11-14T11:32:21.566Z,49.94
2018-11-14T11:34:51.574Z,50.94
2018-11-14T11:37:19.418Z,50.95
2018-11-14T11:39:48.085Z,51.65
2018-11-14T11:42:15.594Z,50.82
2018-11-14T11:44:43.458Z,50.56
2018-11-14T11:47:14.505Z,50.97
2018-11-14T11:49:41.993Z,52.33
2018-11-14T11:52:10.898Z,52.36
2018-11-14T11:54:38.418Z,52.77
2018-11-14T11:57:06.860Z,54.05
2018-11-14T11:59:34.850Z,54.40
2018-11-14T12:02:02.342Z,54.88
2018-11-14T12:04:30.135Z,54.52
2018-11-14T12:06:58.377Z,55.20
2018-11-14T12:09:25.922Z,55.16
2018-11-14T12:11:53.513Z,54.84
2018-11-14T12:14:21.339Z,54.57
2018-11-14T12:16:50.127Z,55.26
2018-11-14T12:19:17.757Z,54.82
2018-11-14T12:21:46.319Z,55.29
2018-11-14T12:24:13.833Z,55.52
2018-11-14T12:26:41.336Z,56.29
2018-11-14T12:29:10.749Z,56.36
2018-11-14T12:31:39.450Z,56.27
2018-11-14T12:34:06.965Z,56.03
2018-11-14T12:36:34.800Z,56.38
2018-11-14T12:39:02.276Z,56.60
2018-11-14T12:41:29.761Z,55.99
2018-11-14T12:43:57.577Z,56.25
2018-11-14T12:46:25.286Z,56.92
2018-11-14T12:48:52.813Z,56.48
2018-11-14T12:51:21.658Z,56.71
2018-11-14T12:53:49.154Z,56.43
2018-11-14T12:56:16.689Z,56.43
2018-11-14T12:58:45.446Z,57.35
2018-11-14T13:01:12.941Z,56.58
2018-11-14T13:03:40.410Z,57.54
2018-11-14T13:06:08.295Z,56.97
2018-11-14T13:08:36.756Z,57.21
2018-11-14T13:11:04.773Z,56.79
2018-11-14T13:13:37.679Z,57.54
2018-11-14T13:16:20.273Z,56.97
2018-11-14T13:18:48.850Z,57.15
2018-11-14T13:21:16.383Z,56.59
2018-11-14T13:23:45.021Z,56.75
2018-11-14T13:26:13.646Z,57.20
2018-11-14T13:28:42.629Z,57.18
2018-11-14T13:31:10.943Z,56.77
2018-11-14T13:33:38.763Z,56.89
2018-11-14T13:36:07.180Z,56.84
2018-11-14T13:38:34.665Z,57.22
2018-11-14T13:41:02.590Z,57.58
2018-11-14T13:43:32.617Z,57.19
2018-11-14T13:46:00.111Z,57.20
2018-11-14T13:48:28.006Z,57.11
2018-11-14T13:50:55.695Z,56.87
2018-11-14T13:53:23.054Z,57.39
2018-11-14T13:55:50.981Z,56.73
2018-11-14T13:58:18.475Z,57.23
2018-11-14T14:00:46.813Z,56.60
2018-11-14T14:03:14.840Z,56.55
2018-11-14T14:05:43.205Z,57.33
2018-11-14T14:08:10.765Z,57.19
2018-11-14T14:10:38.614Z,57.00
2018-11-14T14:13:06.218Z,56.47
2018-11-14T14:15:33.797Z,57.06
2018-11-14T14:18:01.641Z,57.50
2018-11-14T14:20:29.765Z,57.54
2018-11-14T14:22:57.487Z,57.01
2018-11-14T14:25:25.398Z,57.52
2018-11-14T14:27:53.493Z,57.17
2018-11-14T14:30:22.220Z,57.93
2018-11-14T14:32:51.892Z,57.49
2018-11-14T14:35:20.499Z,57.60
2018-11-14T14:37:48.002Z,57.79
2018-11-14T14:40:18.238Z,58.79
2018-11-14T14:42:47.705Z,59.04
2018-11-14T14:45:17.700Z,58.92
2018-11-14T14:47:45.649Z,59.81
2018-11-14T14:50:17.038Z,59.68
2018-11-14T14:52:45.124Z,59.93
2018-11-14T14:55:14.217Z,60.49
2018-11-14T14:57:43.677Z,60.62
2018-11-14T15:00:27.480Z,60.89
2018-11-14T15:02:55.009Z,61.05
2018-11-14T15:05:22.546Z,61.01
2018-11-14T15:07:51.151Z,61.83
2018-11-14T15:10:20.756Z,61.42
2018-11-14T15:12:49.488Z,62.12
2018-11-14T15:15:18.933Z,62.06
2018-11-14T15:17:46.544Z,62.11
2018-11-14T15:20:15.332Z,62.83
2018-11-14T15:22:43.605Z,62.59
2018-11-14T15:25:12.561Z,63.80
2018-11-14T15:27:40.682Z,63.92
2018-11-14T15:30:08.667Z,64.59
2018-11-14T15:32:36.173Z,64.10
2018-11-14T15:35:03.796Z,65.21
2018-11-14T15:37:31.721Z,65.05
2018-11-14T15:40:00.845Z,65.68
2018-11-14T15:42:28.414Z,65.13
2018-11-14T15:44:57.052Z,66.00
2018-11-14T15:47:25.176Z,65.67
2018-11-14T15:49:52.837Z,66.24
2018-11-14T15:52:22.341Z,65.96
2018-11-14T15:54:49.838Z,66.11
2018-11-14T15:57:17.386Z,66.57
2018-11-14T15:59:46.155Z,66.56
2018-11-14T16:02:13.698Z,66.95
2018-11-14T16:04:41.274Z,66.54
2018-11-14T16:07:09.638Z,67.03
2018-11-14T16:09:38.087Z,66.84
2018-11-14T16:12:05.607Z,67.23
2018-11-14T16:14:33.508Z,67.02
2018-11-14T16:17:00.982Z,67.08
2018-11-14T16:19:28.482Z,67.61
2018-11-14T16:21:56.314Z,67.46
2018-11-14T16:24:23.899Z,67.59
2018-11-14T16:26:52.392Z,67.35
2018-11-14T16:29:20.930Z,67.49
2018-11-14T16:31:48.476Z,67.77
2018-11-14T16:34:18.602Z,67.99
2018-11-14T16:36:46.640Z,67.63
2018-11-14T16:39:14.521Z,67.79
2018-11-14T16:41:42.055Z,68.41
2018-11-14T16:44:10.622Z,68.36
2018-11-14T16:46:39.310Z,68.89
2018-11-14T16:49:07.800Z,68.54
2018-11-14T16:51:35.618Z,68.45
2018-11-14T16:54:04.731Z,68.53
2018-11-14T16:56:32.256Z,68.71
2018-11-14T16:59:00.474Z,68.93
2018-11-14T17:01:27.988Z,68.95
2018-11-14T17:03:55.482Z,68.96
2018-11-14T17:06:23.420Z,68.98
2018-11-14T17:08:51.517Z,68.98
2018-11-14T17:11:19.028Z,69.28
2018-11-14T17:13:48.104Z,68.99
2018-11-14T17:16:15.603Z,68.93
2018-11-14T17:18:43.119Z,68.93
2018-11-14T17:21:13.588Z,68.61
2018-11-14T17:23:41.355Z,69.40
2018-11-14T17:26:08.869Z,69.44
2018-11-14T17:28:37.094Z,69.30
2018-11-14T17:31:04.613Z,69.59
2018-11-14T17:33:32.373Z,69.59
2018-11-14T17:36:01.465Z,69.87
2018-11-14T17:38:28.937Z,69.77
2018-11-14T17:40:57.405Z,70.03
2018-11-14T17:43:27.252Z,69.92
2018-11-14T17:45:54.729Z,69.98
2018-11-14T17:48:22.992Z,70.32
2018-11-14T17:50:54.525Z,70.18
2018-11-14T17:53:22.331Z,70.12
2018-11-14T17:55:49.814Z,70.18
2018-11-14T17:58:18.188Z,70.82
2018-11-14T18:00:46.397Z,70.19
2018-11-14T18:03:15.366Z,70.67
2018-11-14T18:05:45.061Z,70.24
2018-11-14T18:08:12.589Z,70.59
2018-11-14T18:10:41.054Z,71.35
2018-11-14T18:13:10.189Z,71.18
2018-11-14T18:15:37.707Z,71.12
2018-11-14T18:18:06.552Z,70.79
2018-11-14T18:20:35.153Z,70.98
2018-11-14T18:25:47.524Z,70.97
2018-11-14T18:28:15.116Z,70.75
2018-11-14T18:30:42.770Z,70.50
2018-11-14T18:33:11.477Z,70.10
2018-11-14T18:35:39.827Z,70.72
2018-11-14T18:38:07.359Z,71.09
2018-11-14T18:40:36.517Z,71.27
2018-11-14T18:43:06.486Z,71.21
2018-11-14T18:45:36.312Z,71.10
2018-11-14T18:48:05.307Z,71.14
2018-11-14T18:50:33.859Z,71.20
2018-11-14T18:53:03.628Z,71.21
2018-11-14T18:55:33.610Z,71.01
2018-11-14T18:58:02.034Z,71.41
2018-11-14T19:00:32.098Z,71.57
2018-11-14T19:02:59.797Z,71.30
2018-11-14T19:05:27.470Z,71.83
2018-11-14T19:07:57.563Z,71.96
2018-11-14T19:10:27.160Z,71.57
2018-11-14T19:12:55.488Z,71.46
2018-11-14T19:15:26.406Z,71.68
2018-11-14T19:17:54.015Z,72.19
2018-11-14T19:20:23.244Z,72.17
2018-11-14T19:22:52.096Z,72.21
2018-11-14T19:25:21.843Z,72.12
2018-11-14T19:27:50.399Z,71.98
2018-11-14T19:30:20.371Z,72.63
2018-11-14T19:32:50.148Z,72.43
2018-11-14T19:35:17.864Z,72.50
2018-11-14T19:37:47.870Z,72.41
2018-11-14T19:40:18.469Z,72.54
2018-11-14T19:42:46.843Z,73.19
2018-11-14T19:45:18.185Z,73.00
2018-11-14T19:47:46.925Z,72.82
2018-11-14T19:50:17.461Z,72.45
2018-11-14T19:52:46.516Z,72.41
2018-11-14T19:55:15.189Z,72.68
2018-11-14T19:57:43.703Z,71.91
2018-11-14T20:00:11.602Z,72.00
2018-11-14T20:02:41.915Z,72.15
2018-11-14T20:05:09.868Z,72.04
2018-11-14T20:07:40.444Z,72.30
2018-11-14T20:10:08.752Z,72.39
2018-11-14T20:12:37.454Z,72.41
2018-11-14T20:15:05.392Z,72.65
2018-11-14T20:17:33.928Z,72.66
2018-11-14T20:20:01.411Z,72.40
2018-11-14T20:22:30.209Z,71.86
2018-11-14T20:24:57.709Z,72.01
2018-11-14T20:27:27.989Z,72.14
2018-11-14T20:29:55.824Z,72.18
2018-11-14T20:32:23.355Z,72.34
2018-11-14T20:34:50.849Z,72.56
2018-11-14T20:37:19.444Z,72.48
2018-11-14T20:39:48.357Z,72.32
2018-11-14T20:42:15.879Z,72.51
2018-11-14T20:44:43.824Z,72.15
2018-11-14T20:47:11.532Z,72.81
2018-11-14T20:49:39.077Z,72.56
2018-11-14T20:52:07.897Z,72.66
2018-11-14T20:54:35.380Z,72.12
2018-11-14T20:57:03.511Z,72.82
2018-11-14T20:59:31.477Z,72.76
2018-11-14T21:01:58.944Z,72.74
2018-11-14T21:04:26.490Z,72.72
2018-11-14T21:06:54.482Z,73.22
2018-11-14T21:09:21.969Z,72.81
2018-11-14T21:11:50.444Z,72.92
2018-11-14T21:14:18.357Z,72.47
2018-11-14T21:16:45.873Z,72.46
2018-11-14T21:19:13.369Z,73.06
2018-11-14T21:21:41.316Z,73.07
2018-11-14T21:24:08.829Z,73.43
2018-11-14T21:26:36.472Z,73.25
2018-11-14T21:29:04.419Z,73.61
2018-11-14T21:31:31.895Z,73.61
2018-11-14T21:33:59.353Z,73.44
2018-11-14T21:36:29.825Z,74.01
2018-11-14T21:38:57.361Z,73.75
2018-11-14T21:41:24.921Z,73.60
2018-11-14T21:43:52.776Z,74.03
2018-11-14T21:46:21.874Z,74.23
2018-11-14T21:48:50.160Z,74.14
2018-11-14T21:51:18.763Z,74.60
2018-11-14T21:53:46.256Z,74.67
2018-11-14T21:56:13.768Z,74.22
2018-11-14T21:58:41.601Z,74.47
2018-11-14T22:01:10.275Z,74.67
2018-11-14T22:03:38.497Z,74.38
2018-11-14T22:06:06.426Z,75.02
2018-11-14T22:08:33.937Z,74.79
2018-11-14T22:11:01.449Z,74.32
2018-11-14T22:13:29.418Z,74.90
2018-11-14T22:15:57.018Z,74.55
2018-11-14T22:18:24.521Z,74.76
2018-11-14T22:20:52.383Z,74.54
2018-11-14T22:23:19.914Z,74.74
2018-11-14T22:25:47.415Z,74.64
2018-11-14T22:28:14.933Z,74.66
2018-11-14T22:30:42.877Z,74.95
2018-11-14T22:33:10.397Z,75.18
2018-11-14T22:35:37.885Z,74.87
2018-11-14T22:38:05.368Z,75.32
2018-11-14T22:40:34.121Z,75.10
2018-11-14T22:43:02.212Z,75.04
2018-11-14T22:45:31.124Z,75.04
2018-11-14T22:47:58.964Z,75.10
2018-11-14T22:50:26.921Z,75.22
2018-11-14T22:52:55.248Z,75.06
2018-11-14T22:55:24.001Z,75.17
2018-11-14T22:57:52.076Z,75.56
2018-11-14T23:00:22.612Z,75.59
2018-11-14T23:02:52.659Z,75.52
2018-11-14T23:05:20.172Z,75.19
2018-11-14T23:07:48.956Z,75.77
2018-11-14T23:10:16.662Z,75.86
2018-11-14T23:12:44.456Z,75.77
2018-11-14T23:15:12.736Z,75.58
2018-11-14T23:17:40.898Z,75.88
2018-11-14T23:20:10.312Z,75.20
2018-11-14T23:22:38.421Z,75.76
2018-11-14T23:25:06.889Z,75.45
2018-11-14T23:27:34.537Z,75.49
2018-11-14T23:30:03.589Z,75.49
2018-11-14T23:32:31.094Z,75.28
2018-11-14T23:35:04.081Z,75.34
2018-11-14T23:37:32.552Z,74.97
2018-11-14T23:40:00.044Z,75.19
2018-11-14T23:42:27.968Z,75.06
2018-11-14T23:44:55.485Z,75.27
2018-11-14T23:47:22.996Z,75.60
2018-11-14T23:49:50.485Z,75.02
2018-11-14T23:52:18.572Z,75.39
2018-11-14T23:54:46.085Z,75.42
2018-11-14T23:57:13.584Z,75.68
2018-11-14T23:59:41.396Z,75.22
